createdAt,value
2018-08-06T00:00:41.713Z,52.15
2018-08-06T00:03:10.409Z,52.37
2018-08-06T00:05:38.986Z,52.24
2018-08-06T00:08:07.972Z,52.17
2018-08-06T00:10:36.564Z,52.67
2018-08-06T00:13:05.165Z,52.78
2018-08-06T00:15:33.707Z,52.52
2018-08-06T00:18:02.276Z,52.76
2018-08-06T00:20:30.866Z,52.78
2018-08-06T00:22:59.436Z,52.79
2018-08-06T00:25:27.949Z,52.64
2018-08-06T00:27:56.509Z,52.73
2018-08-06T00:30:25.077Z,52.82
2018-08-06T00:32:53.601Z,53.03
2018-08-06T00:35:22.089Z,52.72
2018-08-06T00:37:50.653Z,53.46
2018-08-06T00:40:20.670Z,53.51
2018-08-06T00:42:49.697Z,53.02
2018-08-06T00:45:19.984Z,53.24
2018-08-06T00:47:49.181Z,53.72
2018-08-06T00:50:17.786Z,53.61
2018-08-06T00:52:46.417Z,53.50
2018-08-06T00:55:19.040Z,53.19
2018-08-06T00:57:47.639Z,53.21
2018-08-06T01:00:17.117Z,53.35
2018-08-06T01:02:45.687Z,52.99
2018-08-06T01:05:15.113Z,53.21
2018-08-06T01:07:44.247Z,53.49
2018-08-06T01:10:18.204Z,53.35
2018-08-06T01:12:46.815Z,53.50
2018-08-06T01:15:17.729Z,53.96
2018-08-06T01:17:46.381Z,53.59
2018-08-06T01:20:15.316Z,53.75
2018-08-06T01:22:44.640Z,53.44
2018-08-06T01:25:13.841Z,54.39
2018-08-06T01:27:42.428Z,54.17
2018-08-06T01:30:13.345Z,54.51
2018-08-06T01:32:42.049Z,54.49
2018-08-06T01:35:11.361Z,54.13
2018-08-06T01:37:39.966Z,54.27
2018-08-06T01:40:12.033Z,54.38
2018-08-06T01:42:40.841Z,54.32
2018-08-06T01:45:10.161Z,54.58
2018-08-06T01:47:39.018Z,54.37
2018-08-06T01:50:08.557Z,54.14
2018-08-06T01:52:37.235Z,54.72
2018-08-06T01:55:05.874Z,54.54
2018-08-06T01:57:34.629Z,54.90
2018-08-06T02:00:03.426Z,54.52
2018-08-06T02:02:32.031Z,55.69
2018-08-06T02:05:00.571Z,55.54
2018-08-06T02:07:29.223Z,55.39
2018-08-06T02:09:57.725Z,55.44
2018-08-06T02:12:26.368Z,55.55
2018-08-06T02:14:54.907Z,56.04
2018-08-06T02:17:23.723Z,55.51
2018-08-06T02:19:52.947Z,55.81
2018-08-06T02:22:22.572Z,55.67
2018-08-06T02:24:51.137Z,55.41
2018-08-06T02:27:19.721Z,55.74
2018-08-06T02:29:48.300Z,55.40
2018-08-06T02:32:16.825Z,55.66
2018-08-06T02:34:45.475Z,56.25
2018-08-06T02:37:14.069Z,56.34
2018-08-06T02:39:42.675Z,57.00
2018-08-06T02:42:11.187Z,56.71
2018-08-06T02:44:39.732Z,56.89
2018-08-06T02:47:08.277Z,56.88
2018-08-06T02:49:36.900Z,56.79
2018-08-06T02:52:05.885Z,57.06
2018-08-06T02:54:34.395Z,57.16
2018-08-06T02:57:02.949Z,57.46
2018-08-06T02:59:31.534Z,57.70
2018-08-06T03:02:00.118Z,57.46
2018-08-06T03:04:28.668Z,57.36
2018-08-06T03:06:57.297Z,57.33
2018-08-06T03:09:25.896Z,57.57
2018-08-06T03:11:54.444Z,57.15
2018-08-06T03:14:22.978Z,57.28
2018-08-06T03:16:51.566Z,57.14
2018-08-06T03:19:20.159Z,57.38
2018-08-06T03:21:48.759Z,57.47
2018-08-06T03:24:17.341Z,57.71
2018-08-06T03:26:45.905Z,57.78
2018-08-06T03:29:14.546Z,58.33
2018-08-06T03:31:43.056Z,58.34
2018-08-06T03:34:11.676Z,58.90
2018-08-06T03:36:40.281Z,59.94
2018-08-06T03:39:10.305Z,59.77
2018-08-06T03:41:38.976Z,60.48
2018-08-06T03:44:08.079Z,61.22
2018-08-06T03:46:36.899Z,61.19
2018-08-06T03:49:05.595Z,61.97
2018-08-06T03:51:34.179Z,62.30
2018-08-06T03:54:02.765Z,62.16
2018-08-06T03:56:31.288Z,61.74
2018-08-06T03:58:59.873Z,61.21
2018-08-06T04:01:28.610Z,60.72
2018-08-06T04:03:57.252Z,60.17
2018-08-06T04:06:25.874Z,59.45
2018-08-06T04:08:54.502Z,59.33
2018-08-06T04:11:23.193Z,58.57
2018-08-06T04:13:51.858Z,58.34
2018-08-06T04:16:20.538Z,58.06
2018-08-06T04:18:50.412Z,58.17
2018-08-06T04:21:19.744Z,58.43
2018-08-06T04:23:48.488Z,58.81
2018-08-06T04:26:17.156Z,58.28
2018-08-06T04:28:45.798Z,58.59
2018-08-06T04:31:14.443Z,58.49
2018-08-06T04:33:43.064Z,58.35
2018-08-06T04:36:11.662Z,57.49
2018-08-06T04:38:41.255Z,57.53
2018-08-06T04:41:09.942Z,57.99
2018-08-06T04:43:38.614Z,57.62
2018-08-06T04:46:07.349Z,56.57
2018-08-06T04:48:35.804Z,57.02
2018-08-06T04:51:04.457Z,56.44
2018-08-06T04:53:33.326Z,56.30
2018-08-06T04:56:01.951Z,56.10
2018-08-06T04:58:30.497Z,55.62
2018-08-06T05:00:59.042Z,55.78
2018-08-06T05:03:27.679Z,55.67
2018-08-06T05:05:56.249Z,55.51
2018-08-06T05:11:18.627Z,54.60
2018-08-06T05:13:47.341Z,54.11
2018-08-06T05:16:16.026Z,54.69
2018-08-06T05:18:44.663Z,53.75
2018-08-06T05:21:13.243Z,53.70
2018-08-06T05:23:51.503Z,54.09
2018-08-06T05:26:20.236Z,53.72
2018-08-06T05:28:49.558Z,53.42
2018-08-06T05:31:18.289Z,53.33
2018-08-06T05:33:46.872Z,53.11
2018-08-06T05:36:15.733Z,52.26
2018-08-06T05:38:44.370Z,52.13
2018-08-06T05:41:12.982Z,52.16
2018-08-06T05:43:41.742Z,51.24
2018-08-06T05:46:10.654Z,51.78
2018-08-06T05:48:40.066Z,51.28
2018-08-06T05:51:09.457Z,50.89
2018-08-06T05:53:38.053Z,49.80
2018-08-06T05:56:07.718Z,49.71
2018-08-06T05:58:36.358Z,49.71
2018-08-06T06:01:05.029Z,50.29
2018-08-06T06:03:33.570Z,49.24
2018-08-06T06:06:02.242Z,49.47
2018-08-06T06:08:30.906Z,49.47
2018-08-06T06:10:59.687Z,48.58
2018-08-06T06:13:28.335Z,47.95
2018-08-06T06:15:57.002Z,47.74
2018-08-06T06:18:25.682Z,47.33
2018-08-06T06:20:54.950Z,46.82
2018-08-06T06:23:23.566Z,46.50
2018-08-06T06:25:52.349Z,45.82
2018-08-06T06:28:21.036Z,45.08
2018-08-06T06:30:49.725Z,45.52
2018-08-06T06:33:18.541Z,44.51
2018-08-06T06:35:47.317Z,44.55
2018-08-06T06:38:16.225Z,42.97
2018-08-06T06:40:45.128Z,43.49
2018-08-06T06:43:14.276Z,42.86
2018-08-06T06:45:42.934Z,42.37
2018-08-06T06:48:11.718Z,41.17
2018-08-06T06:50:40.334Z,41.23
2018-08-06T06:53:09.554Z,40.04
2018-08-06T06:55:38.114Z,39.93
2018-08-06T06:58:07.023Z,39.17
2018-08-06T07:00:35.665Z,38.80
2018-08-06T07:03:04.454Z,39.64
2018-08-06T07:05:33.131Z,38.31
2018-08-06T07:08:01.686Z,39.12
2018-08-06T07:10:30.584Z,38.44
2018-08-06T07:12:59.227Z,37.14
2018-08-06T07:15:27.833Z,37.77
2018-08-06T07:17:56.442Z,39.15
2018-08-06T07:20:24.977Z,38.95
2018-08-06T07:22:53.591Z,38.07
2018-08-06T07:25:22.206Z,37.48
2018-08-06T07:27:50.769Z,37.26
2018-08-06T07:30:19.305Z,36.51
2018-08-06T07:32:47.910Z,34.70
2018-08-06T07:35:16.476Z,34.63
2018-08-06T07:37:45.098Z,33.32
2018-08-06T07:40:14.674Z,32.08
2018-08-06T07:42:43.268Z,31.09
2018-08-06T07:45:19.124Z,28.79
2018-08-06T07:47:48.417Z,26.91
2018-08-06T07:50:18.839Z,27.22
2018-08-06T07:52:47.609Z,25.59
2018-08-06T07:55:16.270Z,24.25
2018-08-06T07:57:44.890Z,25.64
2018-08-06T08:00:16.266Z,23.88
2018-08-06T08:02:44.853Z,21.70
2018-08-06T08:05:14.799Z,21.70
2018-08-06T08:07:46.849Z,19.38
2018-08-06T08:10:18.006Z,20.98
2018-08-06T08:12:47.136Z,23.59
2018-08-06T08:15:20.402Z,26.05
2018-08-06T08:17:49.045Z,25.58
2018-08-06T08:20:18.332Z,23.88
2018-08-06T08:22:49.079Z,21.64
2018-08-06T08:25:19.641Z,19.45
2018-08-06T08:27:48.277Z,18.91
2018-08-06T08:30:17.542Z,17.74
2018-08-06T08:32:46.168Z,17.66
2018-08-06T08:35:18.572Z,18.89
2018-08-06T08:37:52.082Z,19.13
2018-08-06T08:40:22.113Z,17.93
2018-08-06T08:42:53.713Z,17.55
2018-08-06T08:45:22.302Z,17.64
2018-08-06T08:47:50.919Z,17.55
2018-08-06T08:50:20.421Z,16.30
2018-08-06T08:52:49.135Z,16.41
2018-08-06T08:55:18.903Z,15.94
2018-08-06T08:57:47.460Z,15.00
2018-08-06T09:00:20.794Z,14.44
2018-08-06T09:02:50.709Z,15.59
2018-08-06T09:05:19.725Z,15.24
2018-08-06T09:07:48.965Z,18.17
2018-08-06T09:10:18.345Z,21.49
2018-08-06T09:12:47.478Z,22.68
2018-08-06T09:15:20.650Z,23.00
2018-08-06T09:17:49.210Z,20.43
2018-08-06T09:20:17.777Z,18.83
2018-08-06T09:22:46.920Z,19.39
2018-08-06T09:25:18.601Z,18.90
2018-08-06T09:27:50.194Z,16.39
2018-08-06T09:30:20.043Z,16.22
2018-08-06T09:33:03.106Z,15.12
2018-08-06T09:35:31.673Z,15.09
2018-08-06T09:38:00.188Z,14.31
2018-08-06T09:40:28.745Z,14.07
2018-08-06T09:42:57.301Z,14.79
2018-08-06T09:45:25.940Z,16.39
2018-08-06T09:47:54.976Z,16.90
2018-08-06T09:50:23.625Z,15.14
2018-08-06T09:52:53.142Z,15.75
2018-08-06T09:55:24.053Z,14.53
2018-08-06T09:57:52.963Z,16.52
2018-08-06T10:00:27.731Z,17.77
2018-08-06T10:02:57.620Z,19.90
2018-08-06T10:05:26.818Z,21.17
2018-08-06T10:07:55.327Z,19.79
2018-08-06T10:10:24.103Z,21.10
2018-08-06T10:12:52.632Z,22.38
2018-08-06T10:15:21.884Z,20.88
2018-08-06T10:17:51.990Z,20.87
2018-08-06T10:20:21.838Z,19.47
2018-08-06T10:22:50.674Z,18.04
2018-08-06T10:25:19.245Z,16.23
2018-08-06T10:27:48.279Z,16.28
2018-08-06T10:30:18.859Z,16.98
2018-08-06T10:32:48.330Z,18.02
2018-08-06T10:35:18.056Z,18.14
2018-08-06T10:37:46.568Z,18.99
2018-08-06T10:40:16.793Z,18.05
2018-08-06T10:42:45.749Z,17.08
2018-08-06T10:45:15.655Z,16.32
2018-08-06T10:47:44.232Z,18.00
2018-08-06T10:50:13.565Z,19.05
2018-08-06T10:52:42.062Z,21.38
2018-08-06T10:55:11.175Z,20.76
2018-08-06T10:57:41.194Z,21.07
2018-08-06T11:00:18.058Z,20.27
2018-08-06T11:02:47.054Z,17.77
2018-08-06T11:05:16.410Z,18.06
2018-08-06T11:07:44.966Z,18.23
2018-08-06T11:10:14.972Z,18.10
2018-08-06T11:12:43.534Z,17.15
2018-08-06T11:15:21.973Z,18.42
2018-08-06T11:17:50.561Z,20.83
2018-08-06T11:20:19.838Z,18.96
2018-08-06T11:22:48.351Z,19.46
2018-08-06T11:25:18.906Z,20.96
2018-08-06T11:27:47.595Z,22.30
2018-08-06T11:30:17.946Z,20.72
2018-08-06T11:32:47.461Z,20.03
2018-08-06T11:35:16.309Z,21.47
2018-08-06T11:37:44.845Z,19.81
2018-08-06T11:40:14.522Z,19.45
2018-08-06T11:42:43.874Z,19.42
2018-08-06T11:45:18.369Z,19.06
2018-08-06T11:47:46.926Z,20.00
2018-08-06T11:50:15.473Z,21.44
2018-08-06T11:52:47.991Z,20.93
2018-08-06T11:55:16.481Z,19.68
2018-08-06T11:57:45.003Z,20.79
2018-08-06T12:00:17.005Z,21.36
2018-08-06T12:02:46.753Z,21.64
2018-08-06T12:05:15.294Z,18.93
2018-08-06T12:07:43.827Z,17.81
2018-08-06T12:10:15.295Z,16.37
2018-08-06T12:12:45.830Z,16.62
2018-08-06T12:15:14.514Z,17.32
2018-08-06T12:17:43.442Z,17.99
2018-08-06T12:20:13.962Z,17.31
2018-08-06T12:22:45.343Z,19.58
2018-08-06T12:25:14.713Z,19.93
2018-08-06T12:27:43.723Z,19.41
2018-08-06T12:30:15.325Z,18.59
2018-08-06T12:32:47.130Z,17.02
2018-08-06T12:35:16.233Z,17.35
2018-08-06T12:37:45.632Z,17.63
2018-08-06T12:40:17.301Z,17.29
2018-08-06T12:42:45.827Z,21.13
2018-08-06T14:10:13.192Z,15.98
2018-08-06T14:12:41.681Z,16.41
2018-08-06T14:15:11.498Z,17.35
2018-08-06T14:17:40.958Z,18.84
2018-08-06T14:20:11.076Z,19.43
2018-08-06T14:22:39.561Z,18.22
2018-08-06T14:25:09.396Z,18.50
2018-08-06T14:27:38.166Z,15.84
2018-08-06T14:30:09.722Z,15.54
2018-08-06T14:32:38.238Z,15.80
2018-08-06T14:35:07.133Z,17.33
2018-08-06T14:37:35.660Z,17.01
2018-08-06T14:40:05.077Z,17.17
2018-08-06T14:42:33.572Z,19.33
2018-08-06T14:45:02.113Z,19.89
2018-08-06T14:47:30.640Z,18.97
2018-08-06T14:49:59.165Z,17.90
2018-08-06T14:52:27.641Z,17.52
2018-08-06T14:54:56.149Z,17.15
2018-08-06T14:57:24.661Z,16.97
2018-08-06T14:59:56.111Z,17.26
2018-08-06T15:02:24.676Z,19.05
2018-08-06T15:04:56.814Z,20.98
2018-08-06T15:07:25.373Z,22.73
2018-08-06T15:09:53.870Z,22.77
2018-08-06T15:12:22.346Z,22.19
2018-08-06T15:14:50.882Z,19.91
2018-08-06T15:17:19.383Z,18.80
2018-08-06T15:19:47.898Z,18.66
2018-08-06T15:22:16.449Z,17.87
2018-08-06T15:24:45.007Z,20.22
2018-08-06T15:27:14.006Z,21.99
2018-08-06T15:29:42.524Z,22.75
2018-08-06T15:32:11.085Z,22.79
2018-08-06T15:34:39.594Z,21.44
2018-08-06T15:37:08.098Z,21.58
2018-08-06T15:39:36.634Z,19.93
2018-08-06T15:42:05.196Z,18.71
2018-08-06T15:44:35.803Z,17.37
2018-08-06T15:47:04.291Z,18.01
2018-08-06T15:49:32.821Z,18.90
2018-08-06T15:52:01.331Z,21.07
2018-08-06T15:54:29.850Z,19.40
2018-08-06T15:56:58.334Z,18.36
2018-08-06T15:59:26.789Z,19.24
2018-08-06T16:01:55.299Z,19.88
2018-08-06T16:04:23.770Z,19.72
2018-08-06T16:06:52.292Z,19.59
2018-08-06T16:09:20.810Z,20.39
2018-08-06T16:11:49.391Z,20.63
2018-08-06T16:14:18.129Z,20.73
2018-08-06T16:16:46.659Z,21.06
2018-08-06T16:19:15.124Z,22.98
2018-08-06T16:21:43.631Z,22.68
2018-08-06T16:24:12.097Z,20.99
2018-08-06T16:26:40.593Z,18.96
2018-08-06T16:29:09.070Z,18.67
2018-08-06T16:31:37.573Z,18.01
2018-08-06T16:34:06.067Z,17.72
2018-08-06T16:36:34.681Z,17.36
2018-08-06T16:39:03.278Z,18.18
2018-08-06T16:41:31.758Z,20.07
2018-08-06T16:44:00.291Z,21.04
2018-08-06T16:46:28.773Z,22.25
2018-08-06T16:48:58.125Z,21.95
2018-08-06T16:51:26.667Z,20.86
2018-08-06T16:53:55.158Z,21.76
2018-08-06T16:56:23.655Z,21.93
2018-08-06T16:58:52.186Z,22.29
2018-08-06T17:01:20.753Z,22.73
2018-08-06T17:03:49.257Z,22.49
2018-08-06T17:06:17.835Z,22.53
2018-08-06T17:08:46.370Z,22.92
2018-08-06T17:11:14.933Z,22.65
2018-08-06T17:13:43.433Z,23.01
2018-08-06T17:16:12.177Z,22.51
2018-08-06T17:18:40.713Z,22.52
2018-08-06T17:21:09.278Z,22.57
2018-08-06T17:23:37.770Z,23.00
2018-08-06T17:26:06.354Z,22.78
2018-08-06T17:28:34.864Z,22.84
2018-08-06T17:31:03.423Z,22.94
2018-08-06T17:33:32.007Z,23.56
2018-08-06T17:36:00.550Z,23.48
2018-08-06T17:38:29.113Z,23.34
2018-08-06T17:40:57.628Z,24.04
2018-08-06T17:43:26.184Z,23.93
2018-08-06T17:45:54.738Z,24.11
2018-08-06T17:48:23.278Z,25.13
2018-08-06T17:50:51.755Z,26.07
2018-08-06T17:53:20.293Z,25.90
2018-08-06T17:55:48.952Z,26.95
2018-08-06T17:58:17.366Z,27.23
2018-08-06T18:00:45.850Z,27.25
2018-08-06T18:03:14.379Z,27.69
2018-08-06T18:05:42.901Z,28.53
2018-08-06T18:08:11.446Z,28.95
2018-08-06T18:10:40.654Z,28.98
2018-08-06T18:13:09.212Z,29.11
2018-08-06T18:15:37.781Z,29.63
2018-08-06T18:18:07.050Z,30.08
2018-08-06T18:20:35.534Z,30.45
2018-08-06T18:23:04.384Z,30.45
2018-08-06T18:25:32.862Z,30.61
2018-08-06T18:28:01.366Z,30.51
2018-08-06T18:30:29.818Z,30.88
2018-08-06T18:32:58.366Z,31.05
2018-08-06T18:35:26.861Z,31.75
2018-08-06T18:37:55.369Z,31.32
2018-08-06T18:40:24.443Z,31.78
2018-08-06T18:42:53.073Z,32.82
2018-08-06T18:45:22.193Z,33.79
2018-08-06T18:47:51.545Z,34.37
2018-08-06T18:50:20.501Z,34.62
2018-08-06T18:52:49.630Z,35.06
2018-08-06T18:55:18.593Z,34.02
2018-08-06T18:57:47.548Z,34.55
2018-08-06T19:00:20.313Z,37.33
2018-08-06T19:02:49.009Z,36.38
2018-08-06T19:05:17.563Z,37.21
2018-08-06T19:07:46.142Z,38.19
2018-08-06T19:10:14.667Z,38.33
2018-08-06T19:12:48.517Z,39.61
2018-08-06T19:15:17.010Z,39.01
2018-08-06T19:17:50.945Z,38.46
2018-08-06T19:20:19.480Z,38.64
2018-08-06T19:22:48.162Z,38.90
2018-08-06T19:25:21.874Z,38.66
2018-08-06T19:27:50.508Z,39.79
2018-08-06T19:30:19.027Z,40.83
2018-08-06T19:32:47.603Z,41.77
2018-08-06T19:35:16.248Z,42.18
2018-08-06T19:37:46.506Z,43.20
2018-08-06T19:40:15.298Z,44.25
2018-08-06T19:42:48.905Z,45.03
2018-08-06T19:45:17.458Z,45.47
2018-08-06T19:47:46.011Z,45.27
2018-08-06T19:50:50.389Z,46.44
2018-08-06T19:53:18.969Z,47.41
2018-08-06T19:55:52.752Z,47.78
2018-08-06T19:58:21.273Z,47.49
2018-08-06T20:00:49.993Z,46.95
2018-08-06T20:03:18.535Z,47.80
2018-08-06T20:05:47.073Z,48.42
2018-08-06T20:08:15.635Z,48.47
2018-08-06T20:10:44.235Z,48.91
2018-08-06T20:13:12.787Z,49.08
2018-08-06T20:15:41.394Z,49.30
2018-08-06T20:18:09.947Z,49.24
2018-08-06T20:20:38.563Z,48.43
2018-08-06T20:23:07.202Z,47.96
2018-08-06T20:25:35.750Z,48.11
2018-08-06T20:28:04.419Z,48.20
2018-08-06T20:30:32.984Z,48.11
2018-08-06T20:33:01.521Z,48.40
2018-08-06T20:35:30.143Z,48.46
2018-08-06T20:37:58.667Z,48.87
2018-08-06T20:40:27.249Z,48.81
2018-08-06T20:42:55.799Z,49.17
2018-08-06T20:45:24.370Z,49.30
2018-08-06T20:47:52.916Z,49.37
2018-08-06T20:50:22.645Z,50.05
2018-08-06T20:52:52.213Z,50.46
2018-08-06T20:55:20.830Z,51.12
2018-08-06T20:57:49.954Z,51.73
2018-08-06T21:00:21.616Z,51.99
2018-08-06T21:02:50.869Z,52.10
2018-08-06T21:05:19.524Z,52.34
2018-08-06T21:07:48.191Z,52.76
2018-08-06T21:10:17.549Z,52.93
2018-08-06T21:12:46.494Z,52.39
2018-08-06T21:15:15.718Z,52.10
2018-08-06T21:17:44.564Z,52.71
2018-08-06T21:20:14.381Z,52.51
2018-08-06T21:22:44.392Z,52.48
2018-08-06T21:25:13.331Z,52.93
2018-08-06T21:27:43.141Z,53.40
2018-08-06T21:30:14.084Z,53.51
2018-08-06T21:32:44.776Z,53.88
2018-08-06T21:35:13.385Z,54.18
2018-08-06T21:37:41.909Z,53.82
2018-08-06T21:40:10.565Z,54.62
2018-08-06T21:42:39.442Z,54.37
2018-08-06T21:45:07.938Z,54.80
2018-08-06T21:47:36.526Z,55.49
2018-08-06T21:50:06.408Z,56.15
2018-08-06T21:52:35.043Z,56.89
2018-08-06T21:55:03.600Z,57.57
2018-08-06T21:57:32.185Z,57.53
2018-08-06T22:00:00.743Z,57.23
2018-08-06T22:02:29.476Z,57.42
2018-08-06T22:04:58.041Z,57.15
2018-08-06T22:07:26.599Z,57.99
2018-08-06T22:09:55.125Z,58.44
2018-08-06T22:12:23.694Z,59.39
2018-08-06T22:14:52.631Z,58.96
2018-08-06T22:17:21.207Z,59.14
2018-08-06T22:19:49.699Z,58.99
2018-08-06T22:22:18.253Z,59.29
2018-08-06T22:24:46.930Z,59.95
2018-08-06T22:27:15.486Z,59.61
2018-08-06T22:29:44.026Z,59.20
2018-08-06T22:32:12.604Z,58.04
2018-08-06T22:34:41.169Z,57.41
2018-08-06T22:37:09.778Z,57.25
2018-08-06T22:39:38.291Z,57.51
2018-08-06T22:42:06.881Z,57.42
2018-08-06T22:44:35.406Z,57.60
2018-08-06T22:47:03.989Z,57.91
2018-08-06T22:49:32.605Z,57.42
2018-08-06T22:52:01.123Z,57.25
2018-08-06T22:54:29.679Z,57.80
2018-08-06T22:56:58.227Z,57.66
2018-08-06T22:59:26.762Z,57.53
2018-08-06T23:01:55.465Z,57.64
2018-08-06T23:04:24.476Z,57.54
2018-08-06T23:06:53.087Z,57.23
2018-08-06T23:09:21.595Z,57.62
2018-08-06T23:23:22.099Z,58.83
2018-08-06T23:25:50.609Z,58.72
2018-08-06T23:31:11.939Z,58.83
2018-08-06T23:33:40.515Z,59.19
2018-08-06T23:36:09.178Z,59.43
2018-08-06T23:38:37.822Z,59.24
2018-08-06T23:41:07.713Z,59.11
2018-08-06T23:43:36.432Z,59.37
2018-08-06T23:46:05.014Z,59.57
2018-08-06T23:48:33.896Z,59.97
2018-08-06T23:51:02.394Z,60.39
2018-08-06T23:53:30.971Z,60.29
2018-08-06T23:55:59.534Z,60.39
2018-08-06T23:58:28.222Z,60.35
